sensor_id;sensor_type;location;lat;lon;timestamp;pressure;altitude;pressure_sealevel;temperature;humidity
42125;BME280;27787;44.594;11.046;2022-11-27T00:01:41;102377.66;;;7.59;92.00
42125;BME280;27787;44.594;11.046;2022-11-27T00:04:25;102377.94;;;7.46;92.14
42125;BME280;27787;44.594;11.046;2022-11-27T00:07:09;102381.09;;;7.39;92.66
42125;BME280;27787;44.594;11.046;2022-11-27T00:09:53;102373.44;;;7.44;92.71
42125;BME280;27787;44.594;11.046;2022-11-27T00:12:37;102377.09;;;7.47;92.40
42125;BME280;27787;44.594;11.046;2022-11-27T00:15:21;102376.25;;;7.48;92.53
42125;BME280;27787;44.594;11.046;2022-11-27T00:18:06;102379.78;;;7.49;92.27
42125;BME280;27787;44.594;11.046;2022-11-27T00:20:50;102381.31;;;7.44;92.14
42125;BME280;27787;44.594;11.046;2022-11-27T00:23:34;102392.56;;;7.41;92.59
42125;BME280;27787;44.594;11.046;2022-11-27T00:26:19;102395.75;;;7.34;92.73
42125;BME280;27787;44.594;11.046;2022-11-27T00:29:03;102383.13;;;7.27;92.93
42125;BME280;27787;44.594;11.046;2022-11-27T00:31:47;102377.16;;;7.29;93.02
42125;BME280;27787;44.594;11.046;2022-11-27T00:34:31;102375.31;;;7.28;92.40
42125;BME280;27787;44.594;11.046;2022-11-27T00:37:15;102378.50;;;7.21;91.78
42125;BME280;27787;44.594;11.046;2022-11-27T00:39:59;102381.72;;;7.16;91.79
42125;BME280;27787;44.594;11.046;2022-11-27T00:42:43;102380.56;;;7.09;91.35
42125;BME280;27787;44.594;11.046;2022-11-27T00:45:28;102384.19;;;6.93;90.44
42125;BME280;27787;44.594;11.046;2022-11-27T00:48:12;102388.78;;;6.79;91.30
42125;BME280;27787;44.594;11.046;2022-11-27T00:51:04;102387.41;;;6.88;92.51
42125;BME280;27787;44.594;11.046;2022-11-27T00:53:49;102378.31;;;6.99;92.58
42125;BME280;27787;44.594;11.046;2022-11-27T00:56:36;102383.88;;;7.05;92.18
42125;BME280;27787;44.594;11.046;2022-11-27T00:59:20;102375.25;;;7.07;91.63
42125;BME280;27787;44.594;11.046;2022-11-27T01:02:04;102381.38;;;7.08;91.52
42125;BME280;27787;44.594;11.046;2022-11-27T01:04:48;102378.06;;;7.12;91.39
42125;BME280;27787;44.594;11.046;2022-11-27T01:07:32;102380.09;;;7.18;91.20
42125;BME280;27787;44.594;11.046;2022-11-27T01:10:16;102381.13;;;7.21;90.94
42125;BME280;27787;44.594;11.046;2022-11-27T01:13:00;102377.00;;;7.26;90.56
42125;BME280;27787;44.594;11.046;2022-11-27T01:15:44;102384.94;;;7.28;90.41
42125;BME280;27787;44.594;11.046;2022-11-27T01:18:29;102390.06;;;7.25;90.39
42125;BME280;27787;44.594;11.046;2022-11-27T01:21:16;102384.66;;;7.22;90.53
42125;BME280;27787;44.594;11.046;2022-11-27T01:24:02;102385.50;;;7.21;90.91
42125;BME280;27787;44.594;11.046;2022-11-27T01:26:46;102389.63;;;7.16;91.15
42125;BME280;27787;44.594;11.046;2022-11-27T01:29:30;102400.03;;;7.14;91.33
42125;BME280;27787;44.594;11.046;2022-11-27T01:32:14;102395.47;;;7.10;91.26
42125;BME280;27787;44.594;11.046;2022-11-27T01:34:58;102390.38;;;7.13;91.75
42125;BME280;27787;44.594;11.046;2022-11-27T01:37:42;102389.72;;;7.17;91.29
42125;BME280;27787;44.594;11.046;2022-11-27T01:40:25;102382.34;;;7.10;91.16
42125;BME280;27787;44.594;11.046;2022-11-27T01:43:13;102370.06;;;7.09;91.42
42125;BME280;27787;44.594;11.046;2022-11-27T01:45:58;102373.59;;;7.09;91.37
42125;BME280;27787;44.594;11.046;2022-11-27T01:48:42;102367.88;;;7.00;90.33
42125;BME280;27787;44.594;11.046;2022-11-27T01:51:27;102383.34;;;6.76;90.04
42125;BME280;27787;44.594;11.046;2022-11-27T01:54:12;102369.56;;;6.63;90.93
42125;BME280;27787;44.594;11.046;2022-11-27T01:56:58;102362.91;;;6.69;92.06
42125;BME280;27787;44.594;11.046;2022-11-27T01:59:45;102368.59;;;6.78;92.15
42125;BME280;27787;44.594;11.046;2022-11-27T02:02:29;102360.19;;;6.86;92.23
42125;BME280;27787;44.594;11.046;2022-11-27T02:05:16;102361.00;;;6.85;90.97
42125;BME280;27787;44.594;11.046;2022-11-27T02:08:07;102361.03;;;6.67;89.08
42125;BME280;27787;44.594;11.046;2022-11-27T02:14:02;102352.25;;;6.66;91.44
42125;BME280;27787;44.594;11.046;2022-11-27T02:16:57;102349.63;;;6.66;90.77
42125;BME280;27787;44.594;11.046;2022-11-27T02:23:21;102357.56;;;6.32;91.47
42125;BME280;27787;44.594;11.046;2022-11-27T02:29:34;102358.09;;;6.61;93.89
42125;BME280;27787;44.594;11.046;2022-11-27T02:32:25;102361.47;;;6.58;92.81
42125;BME280;27787;44.594;11.046;2022-11-27T02:41:11;102352.56;;;6.55;92.99
42125;BME280;27787;44.594;11.046;2022-11-27T02:43:59;102350.69;;;6.52;93.05
42125;BME280;27787;44.594;11.046;2022-11-27T02:46:44;102349.94;;;6.55;93.47
42125;BME280;27787;44.594;11.046;2022-11-27T02:49:29;102354.88;;;6.66;93.27
42125;BME280;27787;44.594;11.046;2022-11-27T02:52:16;102348.94;;;6.70;92.52
42125;BME280;27787;44.594;11.046;2022-11-27T02:55:04;102351.28;;;6.64;91.66
42125;BME280;27787;44.594;11.046;2022-11-27T02:57:53;102343.03;;;6.57;92.15
42125;BME280;27787;44.594;11.046;2022-11-27T03:00:40;102336.56;;;6.50;92.01
42125;BME280;27787;44.594;11.046;2022-11-27T03:03:33;102334.63;;;6.46;92.34
42125;BME280;27787;44.594;11.046;2022-11-27T03:06:24;102331.66;;;6.38;92.39
42125;BME280;27787;44.594;11.046;2022-11-27T03:09:14;102323.06;;;6.25;92.12
42125;BME280;27787;44.594;11.046;2022-11-27T03:12:02;102312.97;;;6.14;92.70
42125;BME280;27787;44.594;11.046;2022-11-27T03:14:48;102318.41;;;6.01;92.75
42125;BME280;27787;44.594;11.046;2022-11-27T03:17:47;102316.13;;;5.91;93.54
42125;BME280;27787;44.594;11.046;2022-11-27T03:20:38;102325.13;;;5.80;93.43
42125;BME280;27787;44.594;11.046;2022-11-27T03:23:24;102320.56;;;5.76;94.36
42125;BME280;27787;44.594;11.046;2022-11-27T03:26:08;102318.50;;;5.86;94.71
42125;BME280;27787;44.594;11.046;2022-11-27T03:28:53;102317.94;;;5.92;93.63
42125;BME280;27787;44.594;11.046;2022-11-27T03:31:38;102317.41;;;5.83;93.13
42125;BME280;27787;44.594;11.046;2022-11-27T03:34:23;102313.53;;;5.75;93.18
42125;BME280;27787;44.594;11.046;2022-11-27T03:37:09;102320.16;;;5.68;93.27
42125;BME280;27787;44.594;11.046;2022-11-27T03:39:54;102316.78;;;5.71;93.65
42125;BME280;27787;44.594;11.046;2022-11-27T03:42:47;102311.72;;;5.74;93.67
42125;BME280;27787;44.594;11.046;2022-11-27T03:45:59;102313.41;;;5.89;94.18
42125;BME280;27787;44.594;11.046;2022-11-27T03:48:57;102310.56;;;6.01;93.89
42125;BME280;27787;44.594;11.046;2022-11-27T03:51:57;102309.25;;;5.93;92.39
42125;BME280;27787;44.594;11.046;2022-11-27T03:55:00;102313.81;;;5.81;92.05
42125;BME280;27787;44.594;11.046;2022-11-27T03:58:00;102317.88;;;5.74;93.05
42125;BME280;27787;44.594;11.046;2022-11-27T04:00:47;102317.69;;;5.87;94.24
42125;BME280;27787;44.594;11.046;2022-11-27T04:03:33;102317.50;;;6.01;94.33
42125;BME280;27787;44.594;11.046;2022-11-27T04:06:19;102314.97;;;6.02;92.99
42125;BME280;27787;44.594;11.046;2022-11-27T04:09:03;102309.31;;;5.95;92.48
42125;BME280;27787;44.594;11.046;2022-11-27T04:11:47;102313.00;;;5.98;93.15
42125;BME280;27787;44.594;11.046;2022-11-27T04:14:31;102320.34;;;6.05;93.56
42125;BME280;27787;44.594;11.046;2022-11-27T04:17:15;102320.50;;;6.08;93.62
42125;BME280;27787;44.594;11.046;2022-11-27T04:19:59;102315.59;;;5.98;91.72
42125;BME280;27787;44.594;11.046;2022-11-27T04:22:43;102315.78;;;5.85;91.48
42125;BME280;27787;44.594;11.046;2022-11-27T04:25:27;102314.50;;;5.77;92.59
42125;BME280;27787;44.594;11.046;2022-11-27T04:28:11;102314.34;;;5.90;94.05
42125;BME280;27787;44.594;11.046;2022-11-27T04:30:55;102325.19;;;5.98;94.17
42125;BME280;27787;44.594;11.046;2022-11-27T04:33:40;102324.06;;;5.93;93.30
42125;BME280;27787;44.594;11.046;2022-11-27T04:36:24;102327.81;;;5.98;94.09
42125;BME280;27787;44.594;11.046;2022-11-27T04:39:08;102325.75;;;6.08;94.43
42125;BME280;27787;44.594;11.046;2022-11-27T04:41:51;102329.00;;;6.20;94.53
42125;BME280;27787;44.594;11.046;2022-11-27T04:44:35;102329.38;;;6.28;93.82
42125;BME280;27787;44.594;11.046;2022-11-27T04:47:19;102329.69;;;6.34;93.13
42125;BME280;27787;44.594;11.046;2022-11-27T04:50:04;102327.13;;;6.36;92.43
42125;BME280;27787;44.594;11.046;2022-11-27T04:52:48;102322.69;;;6.35;91.94
42125;BME280;27787;44.594;11.046;2022-11-27T04:55:34;102332.91;;;6.29;91.96
42125;BME280;27787;44.594;11.046;2022-11-27T04:58:18;102341.59;;;6.28;92.07
42125;BME280;27787;44.594;11.046;2022-11-27T05:01:02;102331.19;;;6.29;91.79
42125;BME280;27787;44.594;11.046;2022-11-27T05:03:47;102336.44;;;6.29;91.40
42125;BME280;27787;44.594;11.046;2022-11-27T05:06:31;102332.59;;;6.22;91.32
42125;BME280;27787;44.594;11.046;2022-11-27T05:09:18;102332.38;;;6.18;91.13
42125;BME280;27787;44.594;11.046;2022-11-27T05:12:03;102334.75;;;6.13;91.30
42125;BME280;27787;44.594;11.046;2022-11-27T05:14:46;102333.94;;;6.14;91.31
42125;BME280;27787;44.594;11.046;2022-11-27T05:17:30;102325.91;;;6.11;91.20
42125;BME280;27787;44.594;11.046;2022-11-27T05:20:14;102324.84;;;6.08;91.28
42125;BME280;27787;44.594;11.046;2022-11-27T05:22:58;102333.59;;;6.08;91.27
42125;BME280;27787;44.594;11.046;2022-11-27T05:25:42;102320.56;;;6.10;91.20
42125;BME280;27787;44.594;11.046;2022-11-27T05:28:26;102319.69;;;6.09;91.26
42125;BME280;27787;44.594;11.046;2022-11-27T05:31:10;102329.19;;;6.07;91.22
42125;BME280;27787;44.594;11.046;2022-11-27T05:33:54;102326.44;;;6.04;91.01
42125;BME280;27787;44.594;11.046;2022-11-27T05:36:38;102331.34;;;5.98;91.23
42125;BME280;27787;44.594;11.046;2022-11-27T05:39:22;102337.63;;;5.85;90.31
42125;BME280;27787;44.594;11.046;2022-11-27T05:42:06;102333.81;;;5.79;91.24
42125;BME280;27787;44.594;11.046;2022-11-27T05:44:50;102333.13;;;5.83;92.50
42125;BME280;27787;44.594;11.046;2022-11-27T05:47:34;102335.13;;;5.87;92.88
42125;BME280;27787;44.594;11.046;2022-11-27T05:50:18;102338.31;;;5.98;92.61
42125;BME280;27787;44.594;11.046;2022-11-27T05:53:02;102340.28;;;6.02;92.12
42125;BME280;27787;44.594;11.046;2022-11-27T05:55:46;102346.28;;;5.99;91.93
42125;BME280;27787;44.594;11.046;2022-11-27T05:58:30;102332.56;;;5.88;91.97
42125;BME280;27787;44.594;11.046;2022-11-27T06:01:15;102331.28;;;5.80;92.36
42125;BME280;27787;44.594;11.046;2022-11-27T06:03:59;102328.34;;;5.74;92.57
42125;BME280;27787;44.594;11.046;2022-11-27T06:06:43;102329.88;;;5.71;92.30
42125;BME280;27787;44.594;11.046;2022-11-27T06:09:27;102328.75;;;5.66;92.00
42125;BME280;27787;44.594;11.046;2022-11-27T06:12:11;102339.41;;;5.52;90.22
42125;BME280;27787;44.594;11.046;2022-11-27T06:14:55;102346.44;;;5.37;90.19
42125;BME280;27787;44.594;11.046;2022-11-27T06:17:39;102343.69;;;5.34;91.83
42125;BME280;27787;44.594;11.046;2022-11-27T06:20:23;102345.03;;;5.27;91.87
42125;BME280;27787;44.594;11.046;2022-11-27T06:23:07;102359.34;;;5.18;91.00
42125;BME280;27787;44.594;11.046;2022-11-27T06:25:51;102377.97;;;5.08;91.43
42125;BME280;27787;44.594;11.046;2022-11-27T06:28:35;102379.59;;;5.06;92.67
42125;BME280;27787;44.594;11.046;2022-11-27T06:31:21;102367.84;;;5.14;93.63
42125;BME280;27787;44.594;11.046;2022-11-27T06:34:06;102380.63;;;5.24;94.54
42125;BME280;27787;44.594;11.046;2022-11-27T06:36:50;102388.34;;;5.37;94.25
42125;BME280;27787;44.594;11.046;2022-11-27T06:39:33;102384.59;;;5.48;93.98
42125;BME280;27787;44.594;11.046;2022-11-27T06:42:17;102389.00;;;5.49;93.17
42125;BME280;27787;44.594;11.046;2022-11-27T06:45:02;102389.56;;;5.44;93.23
42125;BME280;27787;44.594;11.046;2022-11-27T06:47:46;102386.03;;;5.43;93.42
42125;BME280;27787;44.594;11.046;2022-11-27T06:50:30;102386.88;;;5.42;93.59
42125;BME280;27787;44.594;11.046;2022-11-27T06:53:14;102389.41;;;5.41;93.64
42125;BME280;27787;44.594;11.046;2022-11-27T06:55:58;102397.19;;;5.39;93.56
42125;BME280;27787;44.594;11.046;2022-11-27T06:58:45;102407.81;;;5.42;93.63
42125;BME280;27787;44.594;11.046;2022-11-27T07:01:30;102414.47;;;5.52;93.31
42125;BME280;27787;44.594;11.046;2022-11-27T07:04:15;102413.88;;;5.57;92.67
42125;BME280;27787;44.594;11.046;2022-11-27T07:06:59;102417.41;;;5.58;92.19
42125;BME280;27787;44.594;11.046;2022-11-27T07:09:43;102420.22;;;5.61;92.12
42125;BME280;27787;44.594;11.046;2022-11-27T07:12:27;102419.13;;;5.57;91.83
42125;BME280;27787;44.594;11.046;2022-11-27T07:15:11;102409.16;;;5.50;91.63
42125;BME280;27787;44.594;11.046;2022-11-27T07:17:56;102412.81;;;5.38;91.58
42125;BME280;27787;44.594;11.046;2022-11-27T07:20:40;102419.25;;;5.28;91.88
42125;BME280;27787;44.594;11.046;2022-11-27T07:23:24;102410.06;;;5.20;92.09
42125;BME280;27787;44.594;11.046;2022-11-27T07:26:10;102417.41;;;5.11;91.99
42125;BME280;27787;44.594;11.046;2022-11-27T07:28:55;102411.00;;;5.06;92.82
42125;BME280;27787;44.594;11.046;2022-11-27T07:31:40;102408.47;;;5.07;93.83
42125;BME280;27787;44.594;11.046;2022-11-27T07:34:24;102408.25;;;5.19;93.87
42125;BME280;27787;44.594;11.046;2022-11-27T07:37:08;102409.59;;;5.27;93.93
42125;BME280;27787;44.594;11.046;2022-11-27T07:39:52;102408.19;;;5.33;93.98
42125;BME280;27787;44.594;11.046;2022-11-27T07:42:36;102404.22;;;5.40;93.97
42125;BME280;27787;44.594;11.046;2022-11-27T07:45:21;102402.94;;;5.48;93.79
42125;BME280;27787;44.594;11.046;2022-11-27T07:48:05;102404.28;;;5.58;93.88
42125;BME280;27787;44.594;11.046;2022-11-27T07:50:49;102404.88;;;5.69;93.69
42125;BME280;27787;44.594;11.046;2022-11-27T07:53:38;102403.88;;;5.83;93.70
42125;BME280;27787;44.594;11.046;2022-11-27T07:56:23;102402.78;;;5.94;93.17
42125;BME280;27787;44.594;11.046;2022-11-27T07:59:06;102404.09;;;6.02;93.10
42125;BME280;27787;44.594;11.046;2022-11-27T08:01:50;102399.16;;;6.08;92.77
42125;BME280;27787;44.594;11.046;2022-11-27T08:04:35;102407.41;;;6.16;92.46
42125;BME280;27787;44.594;11.046;2022-11-27T08:07:19;102400.69;;;6.21;92.30
42125;BME280;27787;44.594;11.046;2022-11-27T08:10:04;102402.81;;;6.28;92.11
42125;BME280;27787;44.594;11.046;2022-11-27T08:12:48;102400.41;;;6.33;92.33
42125;BME280;27787;44.594;11.046;2022-11-27T08:15:32;102404.97;;;6.37;92.57
42125;BME280;27787;44.594;11.046;2022-11-27T08:18:16;102407.09;;;6.44;92.15
42125;BME280;27787;44.594;11.046;2022-11-27T08:21:00;102409.94;;;6.48;91.85
42125;BME280;27787;44.594;11.046;2022-11-27T08:23:44;102407.41;;;6.50;91.55
42125;BME280;27787;44.594;11.046;2022-11-27T08:26:28;102416.34;;;6.54;91.74
42125;BME280;27787;44.594;11.046;2022-11-27T08:29:12;102414.84;;;6.59;92.06
42125;BME280;27787;44.594;11.046;2022-11-27T08:31:56;102414.25;;;6.64;92.25
42125;BME280;27787;44.594;11.046;2022-11-27T08:34:40;102410.28;;;6.72;92.95
42125;BME280;27787;44.594;11.046;2022-11-27T08:37:25;102411.50;;;6.79;93.30
42125;BME280;27787;44.594;11.046;2022-11-27T08:40:09;102404.81;;;6.86;92.63
42125;BME280;27787;44.594;11.046;2022-11-27T08:42:54;102413.81;;;6.91;92.16
42125;BME280;27787;44.594;11.046;2022-11-27T08:45:38;102412.16;;;6.93;92.58
42125;BME280;27787;44.594;11.046;2022-11-27T08:48:23;102402.56;;;6.93;92.74
42125;BME280;27787;44.594;11.046;2022-11-27T08:51:10;102407.44;;;7.03;92.14
42125;BME280;27787;44.594;11.046;2022-11-27T08:53:55;102412.00;;;7.07;92.70
42125;BME280;27787;44.594;11.046;2022-11-27T08:56:39;102410.13;;;7.05;92.50
42125;BME280;27787;44.594;11.046;2022-11-27T08:59:23;102406.88;;;7.10;91.89
42125;BME280;27787;44.594;11.046;2022-11-27T09:02:10;102402.91;;;7.19;91.43
42125;BME280;27787;44.594;11.046;2022-11-27T09:04:55;102413.47;;;7.20;92.16
42125;BME280;27787;44.594;11.046;2022-11-27T09:07:39;102400.34;;;7.20;92.74
42125;BME280;27787;44.594;11.046;2022-11-27T09:10:26;102402.28;;;7.24;92.67
42125;BME280;27787;44.594;11.046;2022-11-27T09:13:10;102398.75;;;7.24;93.62
42125;BME280;27787;44.594;11.046;2022-11-27T09:15:55;102398.69;;;7.22;93.02
42125;BME280;27787;44.594;11.046;2022-11-27T09:18:42;102398.91;;;7.27;92.09
42125;BME280;27787;44.594;11.046;2022-11-27T09:21:28;102403.25;;;7.26;92.07
42125;BME280;27787;44.594;11.046;2022-11-27T09:24:15;102398.31;;;7.32;92.29
42125;BME280;27787;44.594;11.046;2022-11-27T09:26:59;102403.56;;;7.32;92.47
42125;BME280;27787;44.594;11.046;2022-11-27T09:29:43;102401.84;;;7.33;92.32
42125;BME280;27787;44.594;11.046;2022-11-27T09:32:27;102396.84;;;7.39;92.93
42125;BME280;27787;44.594;11.046;2022-11-27T09:35:11;102399.84;;;7.47;92.90
42125;BME280;27787;44.594;11.046;2022-11-27T09:37:55;102400.34;;;7.57;91.55
42125;BME280;27787;44.594;11.046;2022-11-27T09:40:44;102396.38;;;7.48;91.55
42125;BME280;27787;44.594;11.046;2022-11-27T09:43:33;102394.66;;;7.48;92.33
42125;BME280;27787;44.594;11.046;2022-11-27T09:46:31;102388.38;;;7.45;92.74
42125;BME280;27787;44.594;11.046;2022-11-27T09:49:40;102390.16;;;7.46;93.85
42125;BME280;27787;44.594;11.046;2022-11-27T09:52:38;102384.28;;;7.51;94.35
42125;BME280;27787;44.594;11.046;2022-11-27T09:55:31;102382.91;;;7.59;94.49
42125;BME280;27787;44.594;11.046;2022-11-27T09:58:20;102386.88;;;7.69;93.36
42125;BME280;27787;44.594;11.046;2022-11-27T10:01:19;102382.56;;;7.71;92.90
42125;BME280;27787;44.594;11.046;2022-11-27T10:04:05;102377.44;;;7.74;92.27
42125;BME280;27787;44.594;11.046;2022-11-27T10:07:01;102374.28;;;7.81;91.72
42125;BME280;27787;44.594;11.046;2022-11-27T10:10:26;102376.91;;;7.81;92.59
42125;BME280;27787;44.594;11.046;2022-11-27T10:16:49;102362.63;;;7.95;92.71
42125;BME280;27787;44.594;11.046;2022-11-27T10:25:38;102352.41;;;8.22;91.91
42125;BME280;27787;44.594;11.046;2022-11-27T10:28:40;102350.19;;;8.33;91.43
42125;BME280;27787;44.594;11.046;2022-11-27T10:31:39;102351.84;;;8.31;91.50
42125;BME280;27787;44.594;11.046;2022-11-27T10:35:02;102347.81;;;8.38;91.33
42125;BME280;27787;44.594;11.046;2022-11-27T10:40:49;102333.38;;;8.49;89.45
42125;BME280;27787;44.594;11.046;2022-11-27T10:43:35;102330.84;;;8.52;88.05
42125;BME280;27787;44.594;11.046;2022-11-27T10:46:23;102321.44;;;8.58;87.76
42125;BME280;27787;44.594;11.046;2022-11-27T10:49:10;102313.66;;;8.60;88.58
42125;BME280;27787;44.594;11.046;2022-11-27T10:51:53;102312.19;;;8.68;88.82
42125;BME280;27787;44.594;11.046;2022-11-27T10:54:38;102306.47;;;8.78;88.62
42125;BME280;27787;44.594;11.046;2022-11-27T11:00:19;102308.69;;;8.90;85.97
42125;BME280;27787;44.594;11.046;2022-11-27T11:03:05;102304.19;;;8.88;85.35
42125;BME280;27787;44.594;11.046;2022-11-27T11:05:59;102293.66;;;8.88;85.55
42125;BME280;27787;44.594;11.046;2022-11-27T11:08:44;102303.06;;;9.03;84.40
42125;BME280;27787;44.594;11.046;2022-11-27T11:11:28;102293.56;;;9.08;84.34
42125;BME280;27787;44.594;11.046;2022-11-27T11:14:18;102283.78;;;9.04;85.31
42125;BME280;27787;44.594;11.046;2022-11-27T11:17:14;102283.03;;;9.08;83.84
42125;BME280;27787;44.594;11.046;2022-11-27T11:19:59;102272.75;;;9.14;83.18
42125;BME280;27787;44.594;11.046;2022-11-27T11:22:45;102259.75;;;9.19;83.44
42125;BME280;27787;44.594;11.046;2022-11-27T11:25:30;102266.78;;;9.20;83.38
42125;BME280;27787;44.594;11.046;2022-11-27T11:28:18;102253.56;;;9.19;81.20
42125;BME280;27787;44.594;11.046;2022-11-27T11:31:06;102252.72;;;9.20;81.52
42125;BME280;27787;44.594;11.046;2022-11-27T11:33:55;102246.63;;;9.21;82.10
42125;BME280;27787;44.594;11.046;2022-11-27T11:36:41;102243.44;;;9.29;82.65
42125;BME280;27787;44.594;11.046;2022-11-27T11:39:43;102246.97;;;9.30;80.73
42125;BME280;27787;44.594;11.046;2022-11-27T11:42:31;102244.31;;;9.30;80.72
42125;BME280;27787;44.594;11.046;2022-11-27T11:45:17;102243.59;;;9.34;81.06
42125;BME280;27787;44.594;11.046;2022-11-27T11:48:25;102236.81;;;9.40;81.64
42125;BME280;27787;44.594;11.046;2022-11-27T11:51:15;102230.84;;;9.46;81.31
42125;BME280;27787;44.594;11.046;2022-11-27T11:57:46;102223.53;;;9.63;81.14
42125;BME280;27787;44.594;11.046;2022-11-27T12:00:48;102215.88;;;9.70;81.49
42125;BME280;27787;44.594;11.046;2022-11-27T12:03:38;102217.78;;;9.74;81.18
42125;BME280;27787;44.594;11.046;2022-11-27T12:06:31;102215.09;;;9.73;80.78
42125;BME280;27787;44.594;11.046;2022-11-27T12:18:35;102205.75;;;9.83;80.34
42125;BME280;27787;44.594;11.046;2022-11-27T12:24:39;102199.91;;;9.91;79.99
42125;BME280;27787;44.594;11.046;2022-11-27T12:45:32;102187.25;;;10.08;79.38
42125;BME280;27787;44.594;11.046;2022-11-27T12:51:26;102168.84;;;10.10;79.60
42125;BME280;27787;44.594;11.046;2022-11-27T12:54:23;102164.34;;;10.07;79.83
42125;BME280;27787;44.594;11.046;2022-11-27T12:57:23;102155.72;;;10.13;80.20
42125;BME280;27787;44.594;11.046;2022-11-27T13:00:33;102165.66;;;10.20;80.15
42125;BME280;27787;44.594;11.046;2022-11-27T13:03:30;102161.44;;;10.25;79.82
42125;BME280;27787;44.594;11.046;2022-11-27T13:06:21;102155.47;;;10.30;79.78
42125;BME280;27787;44.594;11.046;2022-11-27T13:09:12;102153.72;;;10.31;79.73
42125;BME280;27787;44.594;11.046;2022-11-27T13:11:59;102143.28;;;10.36;79.74
42125;BME280;27787;44.594;11.046;2022-11-27T13:14:50;102133.59;;;10.34;79.95
42125;BME280;27787;44.594;11.046;2022-11-27T13:17:40;102127.44;;;10.36;80.13
42125;BME280;27787;44.594;11.046;2022-11-27T13:20:31;102124.94;;;10.40;79.93
42125;BME280;27787;44.594;11.046;2022-11-27T13:23:17;102124.31;;;10.49;79.62
42125;BME280;27787;44.594;11.046;2022-11-27T13:26:09;102113.88;;;10.53;79.76
42125;BME280;27787;44.594;11.046;2022-11-27T13:29:00;102119.28;;;10.56;79.32
42125;BME280;27787;44.594;11.046;2022-11-27T13:31:52;102115.69;;;10.54;78.88
42125;BME280;27787;44.594;11.046;2022-11-27T13:34:44;102112.25;;;10.57;79.52
42125;BME280;27787;44.594;11.046;2022-11-27T13:37:35;102116.69;;;10.58;79.38
42125;BME280;27787;44.594;11.046;2022-11-27T13:40:23;102107.91;;;10.59;79.15
42125;BME280;27787;44.594;11.046;2022-11-27T13:43:20;102107.00;;;10.58;79.29
42125;BME280;27787;44.594;11.046;2022-11-27T13:46:23;102108.03;;;10.63;78.97
42125;BME280;27787;44.594;11.046;2022-11-27T13:49:22;102101.09;;;10.67;79.11
42125;BME280;27787;44.594;11.046;2022-11-27T13:52:16;102100.34;;;10.71;79.21
42125;BME280;27787;44.594;11.046;2022-11-27T13:55:04;102091.69;;;10.77;79.34
42125;BME280;27787;44.594;11.046;2022-11-27T13:57:55;102094.47;;;10.81;79.08
42125;BME280;27787;44.594;11.046;2022-11-27T14:00:44;102090.13;;;10.83;78.68
42125;BME280;27787;44.594;11.046;2022-11-27T14:03:29;102087.56;;;10.86;78.53
42125;BME280;27787;44.594;11.046;2022-11-27T14:06:33;102086.78;;;10.90;78.19
42125;BME280;27787;44.594;11.046;2022-11-27T14:09:18;102079.88;;;10.96;78.30
42125;BME280;27787;44.594;11.046;2022-11-27T14:12:13;102079.97;;;10.99;76.93
42125;BME280;27787;44.594;11.046;2022-11-27T14:18:16;102084.66;;;11.09;77.13
42125;BME280;27787;44.594;11.046;2022-11-27T14:21:03;102092.66;;;11.12;76.06
42125;BME280;27787;44.594;11.046;2022-11-27T14:23:49;102091.72;;;11.10;75.50
42125;BME280;27787;44.594;11.046;2022-11-27T14:26:33;102094.44;;;11.13;75.70
42125;BME280;27787;44.594;11.046;2022-11-27T14:29:19;102097.13;;;11.14;75.85
42125;BME280;27787;44.594;11.046;2022-11-27T14:32:10;102091.72;;;11.10;75.42
42125;BME280;27787;44.594;11.046;2022-11-27T14:34:54;102086.22;;;11.02;75.23
42125;BME280;27787;44.594;11.046;2022-11-27T14:37:38;102087.81;;;10.96;75.87
42125;BME280;27787;44.594;11.046;2022-11-27T14:40:26;102087.78;;;10.94;76.02
42125;BME280;27787;44.594;11.046;2022-11-27T14:43:22;102088.66;;;10.95;76.42
42125;BME280;27787;44.594;11.046;2022-11-27T14:46:15;102085.19;;;10.96;76.67
42125;BME280;27787;44.594;11.046;2022-11-27T14:49:00;102081.56;;;10.93;76.70
42125;BME280;27787;44.594;11.046;2022-11-27T14:51:44;102073.63;;;10.93;77.05
42125;BME280;27787;44.594;11.046;2022-11-27T14:54:33;102066.50;;;10.89;77.45
42125;BME280;27787;44.594;11.046;2022-11-27T14:57:25;102064.56;;;10.82;77.54
42125;BME280;27787;44.594;11.046;2022-11-27T15:00:20;102075.78;;;10.75;77.88
42125;BME280;27787;44.594;11.046;2022-11-27T15:03:08;102073.03;;;10.71;78.23
42125;BME280;27787;44.594;11.046;2022-11-27T15:05:56;102062.28;;;10.64;78.31
42125;BME280;27787;44.594;11.046;2022-11-27T15:08:45;102061.28;;;10.59;78.43
42125;BME280;27787;44.594;11.046;2022-11-27T15:11:29;102060.19;;;10.53;78.94
42125;BME280;27787;44.594;11.046;2022-11-27T15:14:15;102059.94;;;10.44;79.32
42125;BME280;27787;44.594;11.046;2022-11-27T15:16:59;102064.06;;;10.34;79.66
42125;BME280;27787;44.594;11.046;2022-11-27T15:19:43;102061.22;;;10.28;80.19
42125;BME280;27787;44.594;11.046;2022-11-27T15:22:29;102061.09;;;10.23;80.63
42125;BME280;27787;44.594;11.046;2022-11-27T15:28:33;102054.72;;;10.17;80.92
42125;BME280;27787;44.594;11.046;2022-11-27T15:37:00;102047.38;;;10.07;81.59
42125;BME280;27787;44.594;11.046;2022-11-27T15:39:51;102043.66;;;10.00;82.16
42125;BME280;27787;44.594;11.046;2022-11-27T15:42:35;102040.84;;;9.94;82.47
42125;BME280;27787;44.594;11.046;2022-11-27T15:45:29;102041.50;;;9.87;82.71
42125;BME280;27787;44.594;11.046;2022-11-27T15:48:15;102028.97;;;9.80;83.01
42125;BME280;27787;44.594;11.046;2022-11-27T15:51:00;102030.56;;;9.74;83.37
42125;BME280;27787;44.594;11.046;2022-11-27T15:53:44;102027.78;;;9.70;83.67